sensor_id;sensor_type;location;lat;lon;timestamp;temperature;humidity
25914;DHT22;13718;50.922;5.346;2023-03-20T00:01:44;9.50;99.90
25914;DHT22;13718;50.922;5.346;2023-03-20T00:04:09;9.40;99.90
25914;DHT22;13718;50.922;5.346;2023-03-20T00:06:36;9.30;99.90
25914;DHT22;13718;50.922;5.346;2023-03-20T00:09:02;9.10;99.90
25914;DHT22;13718;50.922;5.346;2023-03-20T00:11:29;9.10;99.90
25914;DHT22;13718;50.922;5.346;2023-03-20T00:14:09;9.00;99.90
25914;DHT22;13718;50.922;5.346;2023-03-20T00:16:37;9.00;99.90
25914;DHT22;13718;50.922;5.346;2023-03-20T00:19:04;9.00;99.90
25914;DHT22;13718;50.922;5.346;2023-03-20T00:21:30;8.90;99.90
25914;DHT22;13718;50.922;5.346;2023-03-20T00:23:56;8.90;99.90
25914;DHT22;13718;50.922;5.346;2023-03-20T00:26:30;9.00;99.90
25914;DHT22;13718;50.922;5.346;2023-03-20T00:28:57;9.00;99.90
25914;DHT22;13718;50.922;5.346;2023-03-20T00:31:23;9.00;99.90
25914;DHT22;13718;50.922;5.346;2023-03-20T00:33:50;9.00;99.90
25914;DHT22;13718;50.922;5.346;2023-03-20T00:36:15;9.00;99.90
25914;DHT22;13718;50.922;5.346;2023-03-20T00:38:41;9.00;99.90
25914;DHT22;13718;50.922;5.346;2023-03-20T00:43:48;8.90;99.90
25914;DHT22;13718;50.922;5.346;2023-03-20T00:46:14;8.70;99.90
25914;DHT22;13718;50.922;5.346;2023-03-20T00:48:40;8.60;99.90
25914;DHT22;13718;50.922;5.346;2023-03-20T00:51:06;8.50;99.90
25914;DHT22;13718;50.922;5.346;2023-03-20T00:53:32;8.50;99.90
25914;DHT22;13718;50.922;5.346;2023-03-20T00:55:57;8.50;99.90
25914;DHT22;13718;50.922;5.346;2023-03-20T00:58:23;8.50;99.90
25914;DHT22;13718;50.922;5.346;2023-03-20T01:00:49;8.40;99.90
25914;DHT22;13718;50.922;5.346;2023-03-20T01:05:40;8.30;99.90
25914;DHT22;13718;50.922;5.346;2023-03-20T01:08:12;8.10;99.90
25914;DHT22;13718;50.922;5.346;2023-03-20T01:10:39;8.10;99.90
25914;DHT22;13718;50.922;5.346;2023-03-20T01:13:05;8.00;99.90
25914;DHT22;13718;50.922;5.346;2023-03-20T01:15:35;8.00;99.90
25914;DHT22;13718;50.922;5.346;2023-03-20T01:18:00;7.90;99.90
25914;DHT22;13718;50.922;5.346;2023-03-20T01:20:27;7.90;99.90
25914;DHT22;13718;50.922;5.346;2023-03-20T01:22:53;7.80;99.90
25914;DHT22;13718;50.922;5.346;2023-03-20T01:25:18;7.70;99.90
25914;DHT22;13718;50.922;5.346;2023-03-20T01:27:48;7.70;99.90
25914;DHT22;13718;50.922;5.346;2023-03-20T01:30:19;7.60;99.90
25914;DHT22;13718;50.922;5.346;2023-03-20T01:32:45;7.90;99.90
25914;DHT22;13718;50.922;5.346;2023-03-20T01:35:16;8.40;99.90
25914;DHT22;13718;50.922;5.346;2023-03-20T01:37:42;8.30;99.90
25914;DHT22;13718;50.922;5.346;2023-03-20T01:40:10;8.30;99.90
25914;DHT22;13718;50.922;5.346;2023-03-20T01:42:37;8.10;99.90
25914;DHT22;13718;50.922;5.346;2023-03-20T01:45:09;7.90;99.90
25914;DHT22;13718;50.922;5.346;2023-03-20T01:47:38;8.00;99.90
25914;DHT22;13718;50.922;5.346;2023-03-20T01:50:13;8.20;99.90
25914;DHT22;13718;50.922;5.346;2023-03-20T01:52:42;8.40;99.90
25914;DHT22;13718;50.922;5.346;2023-03-20T01:55:08;8.20;99.90
25914;DHT22;13718;50.922;5.346;2023-03-20T01:57:34;7.80;99.90
25914;DHT22;13718;50.922;5.346;2023-03-20T02:00:03;7.80;99.90
25914;DHT22;13718;50.922;5.346;2023-03-20T02:02:30;7.80;99.90
25914;DHT22;13718;50.922;5.346;2023-03-20T02:05:01;7.90;99.90
25914;DHT22;13718;50.922;5.346;2023-03-20T02:07:27;7.90;99.90
25914;DHT22;13718;50.922;5.346;2023-03-20T02:09:53;7.70;99.90
25914;DHT22;13718;50.922;5.346;2023-03-20T02:12:18;7.60;99.90
25914;DHT22;13718;50.922;5.346;2023-03-20T02:14:44;7.60;99.90
25914;DHT22;13718;50.922;5.346;2023-03-20T02:17:11;7.50;99.90
25914;DHT22;13718;50.922;5.346;2023-03-20T02:27:17;7.00;99.90
25914;DHT22;13718;50.922;5.346;2023-03-20T02:35:16;7.00;99.90
25914;DHT22;13718;50.922;5.346;2023-03-20T02:45:41;6.90;99.90
25914;DHT22;13718;50.922;5.346;2023-03-20T02:48:12;7.00;99.90
25914;DHT22;13718;50.922;5.346;2023-03-20T02:50:48;7.20;99.90
25914;DHT22;13718;50.922;5.346;2023-03-20T02:55:52;7.50;99.90
25914;DHT22;13718;50.922;5.346;2023-03-20T02:58:22;7.40;99.90
25914;DHT22;13718;50.922;5.346;2023-03-20T03:01:08;7.40;99.90
25914;DHT22;13718;50.922;5.346;2023-03-20T03:03:36;7.30;99.90
25914;DHT22;13718;50.922;5.346;2023-03-20T03:06:07;7.40;99.90
25914;DHT22;13718;50.922;5.346;2023-03-20T03:08:35;7.50;99.90
25914;DHT22;13718;50.922;5.346;2023-03-20T03:11:03;7.50;99.90
25914;DHT22;13718;50.922;5.346;2023-03-20T03:13:30;7.40;99.90
25914;DHT22;13718;50.922;5.346;2023-03-20T03:15:58;7.20;99.90
25914;DHT22;13718;50.922;5.346;2023-03-20T03:18:27;7.20;99.90
25914;DHT22;13718;50.922;5.346;2023-03-20T03:20:55;7.20;99.90
25914;DHT22;13718;50.922;5.346;2023-03-20T03:23:25;7.40;99.90
25914;DHT22;13718;50.922;5.346;2023-03-20T03:25:51;7.30;99.90
25914;DHT22;13718;50.922;5.346;2023-03-20T03:28:23;7.10;99.90
25914;DHT22;13718;50.922;5.346;2023-03-20T03:30:50;7.00;99.90
25914;DHT22;13718;50.922;5.346;2023-03-20T03:33:27;6.90;99.90
25914;DHT22;13718;50.922;5.346;2023-03-20T03:35:55;7.00;99.90
25914;DHT22;13718;50.922;5.346;2023-03-20T03:39:08;7.00;99.90
25914;DHT22;13718;50.922;5.346;2023-03-20T03:43:44;7.00;99.90
25914;DHT22;13718;50.922;5.346;2023-03-20T03:46:16;7.10;99.90
25914;DHT22;13718;50.922;5.346;2023-03-20T03:48:46;7.10;99.90
25914;DHT22;13718;50.922;5.346;2023-03-20T03:51:14;7.20;99.90
25914;DHT22;13718;50.922;5.346;2023-03-20T03:53:43;7.20;99.90
25914;DHT22;13718;50.922;5.346;2023-03-20T03:56:12;7.20;99.90
25914;DHT22;13718;50.922;5.346;2023-03-20T03:58:44;7.20;99.90
25914;DHT22;13718;50.922;5.346;2023-03-20T04:01:11;7.20;99.90
25914;DHT22;13718;50.922;5.346;2023-03-20T04:03:39;7.40;99.90
25914;DHT22;13718;50.922;5.346;2023-03-20T04:06:07;7.40;99.90
25914;DHT22;13718;50.922;5.346;2023-03-20T04:08:34;7.50;99.90
25914;DHT22;13718;50.922;5.346;2023-03-20T04:10:59;7.60;99.90
25914;DHT22;13718;50.922;5.346;2023-03-20T04:13:25;7.60;99.90
25914;DHT22;13718;50.922;5.346;2023-03-20T04:15:50;7.80;99.90
25914;DHT22;13718;50.922;5.346;2023-03-20T04:18:17;7.90;99.90
25914;DHT22;13718;50.922;5.346;2023-03-20T04:20:43;7.90;99.90
25914;DHT22;13718;50.922;5.346;2023-03-20T04:23:09;7.80;99.90
25914;DHT22;13718;50.922;5.346;2023-03-20T04:25:35;7.70;99.90
25914;DHT22;13718;50.922;5.346;2023-03-20T04:28:01;7.70;99.90
25914;DHT22;13718;50.922;5.346;2023-03-20T04:30:26;7.70;99.90
25914;DHT22;13718;50.922;5.346;2023-03-20T04:32:52;7.60;99.90
25914;DHT22;13718;50.922;5.346;2023-03-20T04:35:17;7.50;99.90
25914;DHT22;13718;50.922;5.346;2023-03-20T04:37:43;7.50;99.90
25914;DHT22;13718;50.922;5.346;2023-03-20T04:40:08;7.40;99.90
25914;DHT22;13718;50.922;5.346;2023-03-20T04:42:34;7.70;99.90
25914;DHT22;13718;50.922;5.346;2023-03-20T04:45:00;7.80;99.90
25914;DHT22;13718;50.922;5.346;2023-03-20T04:47:25;8.10;99.90
25914;DHT22;13718;50.922;5.346;2023-03-20T04:49:51;8.00;99.90
25914;DHT22;13718;50.922;5.346;2023-03-20T04:52:16;7.90;99.90
25914;DHT22;13718;50.922;5.346;2023-03-20T04:54:42;8.00;99.90
25914;DHT22;13718;50.922;5.346;2023-03-20T04:57:07;8.00;99.90
25914;DHT22;13718;50.922;5.346;2023-03-20T04:59:33;8.10;99.90
25914;DHT22;13718;50.922;5.346;2023-03-20T05:01:58;8.00;99.90
25914;DHT22;13718;50.922;5.346;2023-03-20T05:04:24;8.00;99.90
25914;DHT22;13718;50.922;5.346;2023-03-20T05:06:50;8.00;99.90
25914;DHT22;13718;50.922;5.346;2023-03-20T05:09:16;8.00;99.90
25914;DHT22;13718;50.922;5.346;2023-03-20T05:11:42;8.00;99.90
25914;DHT22;13718;50.922;5.346;2023-03-20T05:14:07;7.90;99.90
25914;DHT22;13718;50.922;5.346;2023-03-20T05:16:33;7.80;99.90
25914;DHT22;13718;50.922;5.346;2023-03-20T05:18:58;7.80;99.90
25914;DHT22;13718;50.922;5.346;2023-03-20T05:21:24;7.90;99.90
25914;DHT22;13718;50.922;5.346;2023-03-20T05:23:49;7.90;99.90
25914;DHT22;13718;50.922;5.346;2023-03-20T05:26:15;7.80;99.90
25914;DHT22;13718;50.922;5.346;2023-03-20T05:28:41;7.80;99.90
25914;DHT22;13718;50.922;5.346;2023-03-20T05:31:06;7.80;99.90
25914;DHT22;13718;50.922;5.346;2023-03-20T05:33:32;7.80;99.90
25914;DHT22;13718;50.922;5.346;2023-03-20T05:35:57;7.70;99.90
25914;DHT22;13718;50.922;5.346;2023-03-20T05:38:23;7.90;99.90
25914;DHT22;13718;50.922;5.346;2023-03-20T05:40:49;7.90;99.90
25914;DHT22;13718;50.922;5.346;2023-03-20T05:43:15;7.90;99.90
25914;DHT22;13718;50.922;5.346;2023-03-20T05:45:41;7.90;99.90
25914;DHT22;13718;50.922;5.346;2023-03-20T05:48:07;7.90;99.90
25914;DHT22;13718;50.922;5.346;2023-03-20T05:50:32;7.90;99.90
25914;DHT22;13718;50.922;5.346;2023-03-20T05:52:58;8.10;99.90
25914;DHT22;13718;50.922;5.346;2023-03-20T05:55:23;8.00;99.90
25914;DHT22;13718;50.922;5.346;2023-03-20T05:57:49;8.00;99.90
25914;DHT22;13718;50.922;5.346;2023-03-20T06:00:14;8.20;99.90
25914;DHT22;13718;50.922;5.346;2023-03-20T06:02:40;8.10;99.90
25914;DHT22;13718;50.922;5.346;2023-03-20T06:05:06;8.10;99.90
25914;DHT22;13718;50.922;5.346;2023-03-20T06:07:31;8.10;99.90
25914;DHT22;13718;50.922;5.346;2023-03-20T06:09:57;8.20;99.90
25914;DHT22;13718;50.922;5.346;2023-03-20T06:12:22;8.30;99.90
25914;DHT22;13718;50.922;5.346;2023-03-20T06:14:48;8.30;99.90
25914;DHT22;13718;50.922;5.346;2023-03-20T06:17:13;8.50;99.90
25914;DHT22;13718;50.922;5.346;2023-03-20T06:19:39;8.30;99.90
25914;DHT22;13718;50.922;5.346;2023-03-20T06:22:05;8.30;99.90
25914;DHT22;13718;50.922;5.346;2023-03-20T06:24:30;8.30;99.90
25914;DHT22;13718;50.922;5.346;2023-03-20T06:26:56;8.40;99.90
25914;DHT22;13718;50.922;5.346;2023-03-20T06:29:21;8.50;99.90
25914;DHT22;13718;50.922;5.346;2023-03-20T06:31:47;8.50;99.90
25914;DHT22;13718;50.922;5.346;2023-03-20T06:34:12;8.50;99.90
25914;DHT22;13718;50.922;5.346;2023-03-20T06:36:38;8.60;99.90
25914;DHT22;13718;50.922;5.346;2023-03-20T06:39:03;8.70;99.90
25914;DHT22;13718;50.922;5.346;2023-03-20T06:41:29;8.70;99.90
25914;DHT22;13718;50.922;5.346;2023-03-20T06:43:54;8.60;99.90
25914;DHT22;13718;50.922;5.346;2023-03-20T06:46:20;8.70;99.90
25914;DHT22;13718;50.922;5.346;2023-03-20T06:48:46;8.70;99.90
25914;DHT22;13718;50.922;5.346;2023-03-20T06:51:12;8.90;99.90
25914;DHT22;13718;50.922;5.346;2023-03-20T06:53:38;9.00;99.90
25914;DHT22;13718;50.922;5.346;2023-03-20T06:56:06;9.00;99.90
25914;DHT22;13718;50.922;5.346;2023-03-20T06:58:32;9.00;99.90
25914;DHT22;13718;50.922;5.346;2023-03-20T07:00:57;9.10;99.90
25914;DHT22;13718;50.922;5.346;2023-03-20T07:03:22;9.20;99.90
25914;DHT22;13718;50.922;5.346;2023-03-20T07:05:48;9.40;99.90
25914;DHT22;13718;50.922;5.346;2023-03-20T07:08:14;9.50;99.90
25914;DHT22;13718;50.922;5.346;2023-03-20T07:10:39;9.70;99.90
25914;DHT22;13718;50.922;5.346;2023-03-20T07:13:05;9.70;99.90
25914;DHT22;13718;50.922;5.346;2023-03-20T07:15:30;9.90;99.90
25914;DHT22;13718;50.922;5.346;2023-03-20T07:17:56;10.00;99.90
25914;DHT22;13718;50.922;5.346;2023-03-20T07:20:22;10.00;99.90
25914;DHT22;13718;50.922;5.346;2023-03-20T07:22:47;10.00;99.90
25914;DHT22;13718;50.922;5.346;2023-03-20T07:25:13;10.00;99.90
25914;DHT22;13718;50.922;5.346;2023-03-20T07:27:39;10.20;99.90
25914;DHT22;13718;50.922;5.346;2023-03-20T07:30:05;10.40;99.90
25914;DHT22;13718;50.922;5.346;2023-03-20T07:32:31;10.40;99.90
25914;DHT22;13718;50.922;5.346;2023-03-20T07:34:56;10.50;99.90
25914;DHT22;13718;50.922;5.346;2023-03-20T07:37:22;10.60;99.90
25914;DHT22;13718;50.922;5.346;2023-03-20T07:39:48;10.70;99.90
25914;DHT22;13718;50.922;5.346;2023-03-20T07:42:14;10.80;99.90
25914;DHT22;13718;50.922;5.346;2023-03-20T07:44:40;10.70;99.90
25914;DHT22;13718;50.922;5.346;2023-03-20T07:47:06;10.70;99.90
25914;DHT22;13718;50.922;5.346;2023-03-20T07:49:31;10.70;99.90
25914;DHT22;13718;50.922;5.346;2023-03-20T07:51:57;10.60;99.90
25914;DHT22;13718;50.922;5.346;2023-03-20T07:54:22;10.60;99.90
25914;DHT22;13718;50.922;5.346;2023-03-20T07:56:48;10.50;99.90
25914;DHT22;13718;50.922;5.346;2023-03-20T07:59:15;10.50;99.90
25914;DHT22;13718;50.922;5.346;2023-03-20T08:01:41;10.50;99.90
25914;DHT22;13718;50.922;5.346;2023-03-20T08:04:06;10.60;99.90
25914;DHT22;13718;50.922;5.346;2023-03-20T08:06:32;10.60;99.90
25914;DHT22;13718;50.922;5.346;2023-03-20T08:08:57;10.70;99.90
25914;DHT22;13718;50.922;5.346;2023-03-20T08:11:23;10.70;99.90
25914;DHT22;13718;50.922;5.346;2023-03-20T08:13:48;10.90;99.90
25914;DHT22;13718;50.922;5.346;2023-03-20T08:16:14;11.00;99.90
25914;DHT22;13718;50.922;5.346;2023-03-20T08:18:39;11.10;99.90
25914;DHT22;13718;50.922;5.346;2023-03-20T08:21:05;11.30;99.90
25914;DHT22;13718;50.922;5.346;2023-03-20T08:23:30;11.40;99.90
25914;DHT22;13718;50.922;5.346;2023-03-20T08:25:56;11.50;99.90
25914;DHT22;13718;50.922;5.346;2023-03-20T08:28:22;11.60;99.90
25914;DHT22;13718;50.922;5.346;2023-03-20T08:30:48;11.70;99.90
25914;DHT22;13718;50.922;5.346;2023-03-20T08:33:14;11.80;99.90
25914;DHT22;13718;50.922;5.346;2023-03-20T08:35:40;11.90;99.90
25914;DHT22;13718;50.922;5.346;2023-03-20T08:38:06;12.10;99.90
25914;DHT22;13718;50.922;5.346;2023-03-20T08:40:31;12.30;99.90
25914;DHT22;13718;50.922;5.346;2023-03-20T08:42:57;12.40;99.90
25914;DHT22;13718;50.922;5.346;2023-03-20T08:45:23;12.60;99.90
25914;DHT22;13718;50.922;5.346;2023-03-20T08:47:50;12.80;99.90
25914;DHT22;13718;50.922;5.346;2023-03-20T08:50:16;12.90;99.90
25914;DHT22;13718;50.922;5.346;2023-03-20T08:52:42;12.90;99.90
25914;DHT22;13718;50.922;5.346;2023-03-20T08:55:09;13.10;99.90
25914;DHT22;13718;50.922;5.346;2023-03-20T08:57:34;13.10;99.90
25914;DHT22;13718;50.922;5.346;2023-03-20T09:00:00;13.00;99.90
25914;DHT22;13718;50.922;5.346;2023-03-20T09:02:25;12.90;99.90
25914;DHT22;13718;50.922;5.346;2023-03-20T09:04:51;12.80;99.90
25914;DHT22;13718;50.922;5.346;2023-03-20T09:07:16;12.80;99.90
25914;DHT22;13718;50.922;5.346;2023-03-20T09:09:42;12.90;99.90
25914;DHT22;13718;50.922;5.346;2023-03-20T09:12:07;12.90;99.90
25914;DHT22;13718;50.922;5.346;2023-03-20T09:14:33;12.70;99.90
25914;DHT22;13718;50.922;5.346;2023-03-20T09:16:58;12.30;99.90
25914;DHT22;13718;50.922;5.346;2023-03-20T09:19:24;12.20;99.90
25914;DHT22;13718;50.922;5.346;2023-03-20T09:21:49;12.20;99.90
25914;DHT22;13718;50.922;5.346;2023-03-20T09:24:15;12.10;99.90
25914;DHT22;13718;50.922;5.346;2023-03-20T09:26:41;12.00;99.90
25914;DHT22;13718;50.922;5.346;2023-03-20T09:29:06;12.10;99.90
25914;DHT22;13718;50.922;5.346;2023-03-20T09:31:32;12.20;99.90
25914;DHT22;13718;50.922;5.346;2023-03-20T09:33:58;12.20;99.90
25914;DHT22;13718;50.922;5.346;2023-03-20T09:36:24;12.30;99.90
25914;DHT22;13718;50.922;5.346;2023-03-20T09:38:49;12.20;99.90
25914;DHT22;13718;50.922;5.346;2023-03-20T09:41:19;12.10;99.90
25914;DHT22;13718;50.922;5.346;2023-03-20T09:48:57;11.90;99.90
25914;DHT22;13718;50.922;5.346;2023-03-20T09:51:37;12.00;99.90
25914;DHT22;13718;50.922;5.346;2023-03-20T09:54:19;11.60;99.90
25914;DHT22;13718;50.922;5.346;2023-03-20T09:56:45;11.60;99.90
25914;DHT22;13718;50.922;5.346;2023-03-20T09:59:12;11.50;99.90
25914;DHT22;13718;50.922;5.346;2023-03-20T10:01:41;11.20;99.90
25914;DHT22;13718;50.922;5.346;2023-03-20T10:04:08;11.20;99.90
25914;DHT22;13718;50.922;5.346;2023-03-20T10:06:35;11.10;99.90
25914;DHT22;13718;50.922;5.346;2023-03-20T10:09:01;11.20;99.90
25914;DHT22;13718;50.922;5.346;2023-03-20T10:24:41;11.30;99.90
25914;DHT22;13718;50.922;5.346;2023-03-20T10:27:16;11.20;99.90
25914;DHT22;13718;50.922;5.346;2023-03-20T10:29:48;11.20;99.90
25914;DHT22;13718;50.922;5.346;2023-03-20T10:32:24;11.20;99.90
25914;DHT22;13718;50.922;5.346;2023-03-20T10:42:44;11.60;99.90
25914;DHT22;13718;50.922;5.346;2023-03-20T10:47:43;11.70;99.90
25914;DHT22;13718;50.922;5.346;2023-03-20T10:50:17;12.00;99.90
25914;DHT22;13718;50.922;5.346;2023-03-20T10:52:44;12.00;99.90
25914;DHT22;13718;50.922;5.346;2023-03-20T10:55:15;12.10;99.90
25914;DHT22;13718;50.922;5.346;2023-03-20T10:57:41;12.10;99.90
25914;DHT22;13718;50.922;5.346;2023-03-20T11:00:17;12.30;99.90
25914;DHT22;13718;50.922;5.346;2023-03-20T11:02:44;12.40;99.90
25914;DHT22;13718;50.922;5.346;2023-03-20T11:05:19;12.60;99.90
25914;DHT22;13718;50.922;5.346;2023-03-20T11:07:45;12.70;99.90
25914;DHT22;13718;50.922;5.346;2023-03-20T11:10:12;12.90;99.90
25914;DHT22;13718;50.922;5.346;2023-03-20T11:12:39;13.00;99.90
25914;DHT22;13718;50.922;5.346;2023-03-20T11:15:18;13.00;99.90
25914;DHT22;13718;50.922;5.346;2023-03-20T11:17:49;13.20;99.90
25914;DHT22;13718;50.922;5.346;2023-03-20T11:20:15;13.30;99.90
25914;DHT22;13718;50.922;5.346;2023-03-20T11:22:40;13.40;99.90
25914;DHT22;13718;50.922;5.346;2023-03-20T11:25:06;13.60;99.90
25914;DHT22;13718;50.922;5.346;2023-03-20T11:27:46;13.70;99.90
25914;DHT22;13718;50.922;5.346;2023-03-20T11:30:12;13.90;99.90
25914;DHT22;13718;50.922;5.346;2023-03-20T11:32:45;14.00;99.90
25914;DHT22;13718;50.922;5.346;2023-03-20T11:37:50;14.40;99.90
25914;DHT22;13718;50.922;5.346;2023-03-20T11:40:24;14.50;99.90
25914;DHT22;13718;50.922;5.346;2023-03-20T11:42:54;14.70;99.90
25914;DHT22;13718;50.922;5.346;2023-03-20T11:45:20;14.90;99.90
25914;DHT22;13718;50.922;5.346;2023-03-20T11:47:49;15.00;99.90
25914;DHT22;13718;50.922;5.346;2023-03-20T11:50:41;15.20;99.90
25914;DHT22;13718;50.922;5.346;2023-03-20T11:58:36;15.30;99.90
25914;DHT22;13718;50.922;5.346;2023-03-20T12:01:03;15.40;99.90
25914;DHT22;13718;50.922;5.346;2023-03-20T12:06:01;15.50;99.90
25914;DHT22;13718;50.922;5.346;2023-03-20T12:08:26;15.60;99.90
25914;DHT22;13718;50.922;5.346;2023-03-20T12:11:02;15.70;99.90
25914;DHT22;13718;50.922;5.346;2023-03-20T12:13:38;15.80;99.90
25914;DHT22;13718;50.922;5.346;2023-03-20T12:16:05;15.50;99.90
25914;DHT22;13718;50.922;5.346;2023-03-20T12:18:35;15.60;99.90
25914;DHT22;13718;50.922;5.346;2023-03-20T12:23:33;15.40;99.90
25914;DHT22;13718;50.922;5.346;2023-03-20T12:26:02;15.30;99.90
25914;DHT22;13718;50.922;5.346;2023-03-20T12:36:00;15.10;99.90
25914;DHT22;13718;50.922;5.346;2023-03-20T12:38:28;15.20;99.90
25914;DHT22;13718;50.922;5.346;2023-03-20T12:41:07;15.30;99.90
25914;DHT22;13718;50.922;5.346;2023-03-20T12:43:39;15.30;99.90
25914;DHT22;13718;50.922;5.346;2023-03-20T12:46:17;15.40;99.90
25914;DHT22;13718;50.922;5.346;2023-03-20T12:48:52;15.50;99.90
25914;DHT22;13718;50.922;5.346;2023-03-20T12:53:49;15.60;99.90
25914;DHT22;13718;50.922;5.346;2023-03-20T12:56:29;15.80;99.90
25914;DHT22;13718;50.922;5.346;2023-03-20T12:59:10;15.90;99.90
25914;DHT22;13718;50.922;5.346;2023-03-20T13:06:50;16.00;99.90
25914;DHT22;13718;50.922;5.346;2023-03-20T13:09:20;15.90;99.90
25914;DHT22;13718;50.922;5.346;2023-03-20T13:14:58;15.90;99.90
25914;DHT22;13718;50.922;5.346;2023-03-20T13:17:13;15.90;99.90
25914;DHT22;13718;50.922;5.346;2023-03-20T13:19:45;15.80;99.90
25914;DHT22;13718;50.922;5.346;2023-03-20T13:22:26;15.80;99.90
25914;DHT22;13718;50.922;5.346;2023-03-20T13:25:38;15.70;99.90
25914;DHT22;13718;50.922;5.346;2023-03-20T13:27:55;15.60;99.90
25914;DHT22;13718;50.922;5.346;2023-03-20T13:30:49;15.60;99.90
25914;DHT22;13718;50.922;5.346;2023-03-20T13:35:54;15.50;99.90
25914;DHT22;13718;50.922;5.346;2023-03-20T13:38:23;15.40;99.90
25914;DHT22;13718;50.922;5.346;2023-03-20T13:40:52;15.50;99.90
25914;DHT22;13718;50.922;5.346;2023-03-20T13:45:48;15.50;99.90
25914;DHT22;13718;50.922;5.346;2023-03-20T13:50:56;15.40;99.90
25914;DHT22;13718;50.922;5.346;2023-03-20T14:02:00;15.60;99.90
25914;DHT22;13718;50.922;5.346;2023-03-20T14:04:31;15.50;99.90
25914;DHT22;13718;50.922;5.346;2023-03-20T14:06:58;15.60;99.90
25914;DHT22;13718;50.922;5.346;2023-03-20T14:11:49;15.60;99.90
25914;DHT22;13718;50.922;5.346;2023-03-20T14:15:02;15.60;99.90
25914;DHT22;13718;50.922;5.346;2023-03-20T14:17:23;15.60;99.90
25914;DHT22;13718;50.922;5.346;2023-03-20T14:19:49;15.50;99.90
25914;DHT22;13718;50.922;5.346;2023-03-20T14:22:20;15.50;99.90
25914;DHT22;13718;50.922;5.346;2023-03-20T14:24:50;15.40;99.90
25914;DHT22;13718;50.922;5.346;2023-03-20T14:27:17;15.40;99.90
25914;DHT22;13718;50.922;5.346;2023-03-20T14:29:44;15.30;99.90
25914;DHT22;13718;50.922;5.346;2023-03-20T14:32:21;15.30;99.90
25914;DHT22;13718;50.922;5.346;2023-03-20T14:37:38;15.30;99.90
25914;DHT22;13718;50.922;5.346;2023-03-20T14:40:15;15.20;99.90
25914;DHT22;13718;50.922;5.346;2023-03-20T14:42:46;15.30;99.90
25914;DHT22;13718;50.922;5.346;2023-03-20T14:50:13;15.30;99.90
25914;DHT22;13718;50.922;5.346;2023-03-20T14:55:23;15.30;99.90
25914;DHT22;13718;50.922;5.346;2023-03-20T14:57:52;15.30;99.90
25914;DHT22;13718;50.922;5.346;2023-03-20T15:00:19;15.20;99.90
25914;DHT22;13718;50.922;5.346;2023-03-20T15:02:45;15.00;99.90
25914;DHT22;13718;50.922;5.346;2023-03-20T15:05:25;15.00;99.90
25914;DHT22;13718;50.922;5.346;2023-03-20T15:07:55;15.10;99.90
25914;DHT22;13718;50.922;5.346;2023-03-20T15:10:20;15.30;99.90
25914;DHT22;13718;50.922;5.346;2023-03-20T15:12:46;15.30;99.90
25914;DHT22;13718;50.922;5.346;2023-03-20T15:15:25;15.40;99.90
25914;DHT22;13718;50.922;5.346;2023-03-20T15:17:51;15.50;99.90
25914;DHT22;13718;50.922;5.346;2023-03-20T15:20:25;15.30;99.90
25914;DHT22;13718;50.922;5.346;2023-03-20T15:22:57;15.10;99.90
25914;DHT22;13718;50.922;5.346;2023-03-20T15:25:24;15.10;99.90
25914;DHT22;13718;50.922;5.346;2023-03-20T15:27:52;15.10;99.90
25914;DHT22;13718;50.922;5.346;2023-03-20T15:30:19;15.00;99.90
25914;DHT22;13718;50.922;5.346;2023-03-20T15:32:45;14.80;99.90
25914;DHT22;13718;50.922;5.346;2023-03-20T15:35:16;14.90;99.90
25914;DHT22;13718;50.922;5.346;2023-03-20T15:37:42;14.90;99.90
25914;DHT22;13718;50.922;5.346;2023-03-20T15:40:09;15.00;99.90
25914;DHT22;13718;50.922;5.346;2023-03-20T15:42:35;14.80;99.90
25914;DHT22;13718;50.922;5.346;2023-03-20T15:45:01;14.90;99.90
25914;DHT22;13718;50.922;5.346;2023-03-20T15:47:26;14.80;99.90
25914;DHT22;13718;50.922;5.346;2023-03-20T15:49:53;14.80;99.90
25914;DHT22;13718;50.922;5.346;2023-03-20T15:54:45;14.70;99.90
25914;DHT22;13718;50.922;5.346;2023-03-20T15:57:12;14.70;99.90
25914;DHT22;13718;50.922;5.346;2023-03-20T15:59:41;14.70;99.90
25914;DHT22;13718;50.922;5.346;2023-03-20T16:02:07;14.70;99.90
25914;DHT22;13718;50.922;5.346;2023-03-20T16:04:33;14.80;99.90
25914;DHT22;13718;50.922;5.346;2023-03-20T16:06:59;14.70;99.90
25914;DHT22;13718;50.922;5.346;2023-03-20T16:09:25;14.60;99.90
25914;DHT22;13718;50.922;5.346;2023-03-20T16:11:55;14.50;99.90
25914;DHT22;13718;50.922;5.346;2023-03-20T16:14:21;14.40;99.90
25914;DHT22;13718;50.922;5.346;2023-03-20T16:16:49;14.50;99.90
25914;DHT22;13718;50.922;5.346;2023-03-20T16:19:14;14.70;99.90
25914;DHT22;13718;50.922;5.346;2023-03-20T16:21:42;14.50;99.90
25914;DHT22;13718;50.922;5.346;2023-03-20T16:24:09;14.20;99.90
25914;DHT22;13718;50.922;5.346;2023-03-20T16:26:41;14.00;99.90
25914;DHT22;13718;50.922;5.346;2023-03-20T16:29:08;14.00;99.90
25914;DHT22;13718;50.922;5.346;2023-03-20T16:31:35;13.90;99.90
25914;DHT22;13718;50.922;5.346;2023-03-20T16:34:07;13.90;99.90
25914;DHT22;13718;50.922;5.346;2023-03-20T16:36:34;13.80;99.90
25914;DHT22;13718;50.922;5.346;2023-03-20T16:39:05;13.70;99.90
25914;DHT22;13718;50.922;5.346;2023-03-20T16:41:32;13.40;99.90
25914;DHT22;13718;50.922;5.346;2023-03-20T16:43:58;13.20;99.90
25914;DHT22;13718;50.922;5.346;2023-03-20T16:46:25;13.00;99.90
25914;DHT22;13718;50.922;5.346;2023-03-20T16:48:51;13.00;99.90
25914;DHT22;13718;50.922;5.346;2023-03-20T16:51:21;13.00;99.90
25914;DHT22;13718;50.922;5.346;2023-03-20T16:53:49;13.00;99.90
25914;DHT22;13718;50.922;5.346;2023-03-20T16:56:16;13.10;99.90
25914;DHT22;13718;50.922;5.346;2023-03-20T16:58:45;13.10;99.90
25914;DHT22;13718;50.922;5.346;2023-03-20T17:01:14;13.10;99.90
25914;DHT22;13718;50.922;5.346;2023-03-20T17:03:54;13.30;99.90
25914;DHT22;13718;50.922;5.346;2023-03-20T17:08:48;13.30;99.90
25914;DHT22;13718;50.922;5.346;2023-03-20T17:11:15;13.30;99.90
25914;DHT22;13718;50.922;5.346;2023-03-20T17:13:41;13.40;99.90
25914;DHT22;13718;50.922;5.346;2023-03-20T17:16:09;13.70;99.90
25914;DHT22;13718;50.922;5.346;2023-03-20T17:18:37;13.60;99.90
25914;DHT22;13718;50.922;5.346;2023-03-20T17:21:03;13.60;99.90
25914;DHT22;13718;50.922;5.346;2023-03-20T17:23:28;13.60;99.90
25914;DHT22;13718;50.922;5.346;2023-03-20T17:25:54;13.50;99.90
25914;DHT22;13718;50.922;5.346;2023-03-20T17:28:21;13.40;99.90
25914;DHT22;13718;50.922;5.346;2023-03-20T17:30:47;13.60;99.90
25914;DHT22;13718;50.922;5.346;2023-03-20T17:33:14;13.40;99.90
25914;DHT22;13718;50.922;5.346;2023-03-20T17:35:40;13.30;99.90
25914;DHT22;13718;50.922;5.346;2023-03-20T17:38:07;13.40;99.90
25914;DHT22;13718;50.922;5.346;2023-03-20T17:40:33;13.30;99.90
25914;DHT22;13718;50.922;5.346;2023-03-20T17:42:58;13.30;99.90
25914;DHT22;13718;50.922;5.346;2023-03-20T17:45:24;13.10;99.90
25914;DHT22;13718;50.922;5.346;2023-03-20T17:47:49;13.00;99.90